createdAt,value
2016-04-04T00:00:12.015Z,981.91
2016-04-04T00:01:12.034Z,981.91
2016-04-04T00:02:12.020Z,981.86
2016-04-04T00:03:12.040Z,981.86
2016-04-04T00:04:12.042Z,981.92
2016-04-04T00:05:12.045Z,981.91
2016-04-04T00:06:12.047Z,981.87
2016-04-04T00:07:12.065Z,981.89
2016-04-04T00:08:12.053Z,981.92
2016-04-04T00:09:12.055Z,981.86
2016-04-04T00:10:12.058Z,981.87
2016-04-04T00:11:12.076Z,981.86
2016-04-04T00:12:12.079Z,981.86
2016-04-04T00:13:12.081Z,981.87
2016-04-04T00:14:12.084Z,981.88
2016-04-04T00:15:12.087Z,981.94
2016-04-04T00:16:12.090Z,981.88
2016-04-04T00:17:12.108Z,981.91
2016-04-04T00:18:12.094Z,981.96
2016-04-04T00:19:12.097Z,981.95
2016-04-04T00:20:12.116Z,981.94
2016-04-04T00:21:12.119Z,981.95
2016-04-04T00:22:12.122Z,981.91
2016-04-04T00:23:12.124Z,981.91
2016-04-04T00:24:12.127Z,981.9
2016-04-04T00:25:12.129Z,981.88
2016-04-04T00:26:12.148Z,981.88
2016-04-04T00:27:12.135Z,981.85
2016-04-04T00:28:12.138Z,981.85
2016-04-04T00:29:12.140Z,981.8
2016-04-04T00:30:12.143Z,981.81
2016-04-04T00:31:12.161Z,981.83
2016-04-04T00:32:12.164Z,981.85
2016-04-04T00:33:12.167Z,981.85
2016-04-04T00:34:12.170Z,981.88
2016-04-04T00:35:12.172Z,981.86
2016-04-04T00:36:12.175Z,981.85
2016-04-04T00:37:12.177Z,981.86
2016-04-04T00:38:12.180Z,981.86
2016-04-04T00:39:12.184Z,981.87
2016-04-04T00:40:12.200Z,981.89
2016-04-04T00:41:12.204Z,981.92
2016-04-04T00:42:12.206Z,981.92
2016-04-04T00:43:12.208Z,981.99
2016-04-04T00:44:12.227Z,982
2016-04-04T00:45:12.215Z,982.1
2016-04-04T00:46:12.217Z,982.09
2016-04-04T00:47:12.220Z,982.13
2016-04-04T00:48:12.238Z,982.17
2016-04-04T00:49:12.225Z,982.16
2016-04-04T00:50:12.243Z,982.2
2016-04-04T00:51:12.246Z,982.23
2016-04-04T00:52:12.249Z,982.25
2016-04-04T00:53:12.252Z,982.22
2016-04-04T00:54:12.254Z,982.21
2016-04-04T00:55:12.257Z,982.19
2016-04-04T00:56:12.260Z,982.15
2016-04-04T00:57:12.263Z,982.17
2016-04-04T00:58:12.280Z,982.17
2016-04-04T00:59:12.268Z,982.18
2016-04-04T01:00:12.270Z,982.17
2016-04-04T01:01:12.288Z,982.18
2016-04-04T01:02:12.291Z,982.18
2016-04-04T01:03:12.294Z,982.15
2016-04-04T01:04:12.297Z,982.16
2016-04-04T01:05:12.299Z,982.15
2016-04-04T01:06:12.302Z,982.1
2016-04-04T01:07:12.305Z,982.14
2016-04-04T01:08:12.308Z,982.07
2016-04-04T01:09:12.310Z,982.05
2016-04-04T01:10:12.313Z,982.06
2016-04-04T01:11:12.332Z,982.06
2016-04-04T01:12:12.318Z,982.03
2016-04-04T01:13:12.321Z,982.1
2016-04-04T01:14:12.323Z,982.1
2016-04-04T01:15:12.342Z,982.14
2016-04-04T01:16:12.345Z,982.18
2016-04-04T01:17:12.347Z,982.14
2016-04-04T01:18:12.350Z,982.14
2016-04-04T01:19:12.353Z,982.11
2016-04-04T01:20:12.355Z,982.14
2016-04-04T01:21:12.358Z,982.1
2016-04-04T01:22:12.377Z,982.1
2016-04-04T01:23:12.364Z,982.13
2016-04-04T01:24:12.383Z,982.15
2016-04-04T01:25:12.369Z,982.24
2016-04-04T01:26:12.388Z,982.22
2016-04-04T01:27:12.390Z,982.15
2016-04-04T01:28:12.393Z,982.11
2016-04-04T01:29:12.395Z,982.07
2016-04-04T01:30:12.398Z,982.15
2016-04-04T01:31:12.401Z,982.13
2016-04-04T01:32:12.404Z,982.21
2016-04-04T01:33:12.407Z,982.24
2016-04-04T01:34:12.409Z,982.22
2016-04-04T01:35:12.412Z,982.2
2016-04-04T01:36:12.430Z,982.17
2016-04-04T01:37:12.418Z,982.21
2016-04-04T01:38:12.435Z,982.28
2016-04-04T01:39:12.438Z,982.27
2016-04-04T01:40:12.441Z,982.27
2016-04-04T01:41:12.443Z,982.31
2016-04-04T01:42:12.446Z,982.3
2016-04-04T01:43:12.448Z,982.36
2016-04-04T01:44:12.451Z,982.38
2016-04-04T01:45:12.470Z,982.38
2016-04-04T01:46:12.472Z,982.36
2016-04-04T01:47:12.475Z,982.3
2016-04-04T01:48:12.477Z,982.29
2016-04-04T01:49:12.480Z,982.29
2016-04-04T01:50:12.483Z,982.31
2016-04-04T01:51:12.485Z,982.32
2016-04-04T01:52:12.488Z,982.31
2016-04-04T01:53:12.491Z,982.36
2016-04-04T01:54:12.493Z,982.35
2016-04-04T01:55:12.512Z,982.33
2016-04-04T01:56:12.515Z,982.3
2016-04-04T01:57:12.518Z,982.29
2016-04-04T01:58:12.520Z,982.27
2016-04-04T01:59:12.523Z,982.33
2016-04-04T02:00:12.530Z,982.3
2016-04-04T02:01:12.533Z,982.27
2016-04-04T02:02:12.536Z,982.24
2016-04-04T02:03:12.538Z,982.26
2016-04-04T02:04:12.541Z,982.27
2016-04-04T02:05:12.543Z,982.27
2016-04-04T02:06:12.546Z,982.27
2016-04-04T02:07:12.549Z,982.22
2016-04-04T02:08:12.551Z,982.23
2016-04-04T02:09:12.570Z,982.18
2016-04-04T02:10:12.573Z,982.13
2016-04-04T02:11:12.576Z,982.09
2016-04-04T02:12:12.578Z,982.07
2016-04-04T02:13:12.581Z,982.11
2016-04-04T02:14:12.584Z,982.05
2016-04-04T02:15:12.587Z,982.05
2016-04-04T02:16:12.605Z,982
2016-04-04T02:17:12.608Z,981.97
2016-04-04T02:18:12.610Z,982
2016-04-04T02:19:12.613Z,981.99
2016-04-04T02:20:12.631Z,981.96
2016-04-04T02:21:12.619Z,981.94
2016-04-04T02:22:12.622Z,981.89
2016-04-04T02:23:12.624Z,981.87
2016-04-04T02:24:12.627Z,981.87
2016-04-04T02:25:12.644Z,981.91
2016-04-04T02:26:12.632Z,981.88
2016-04-04T02:27:12.650Z,981.9
2016-04-04T02:28:12.638Z,981.91
2016-04-04T02:29:12.640Z,981.95
2016-04-04T02:30:12.674Z,981.98
2016-04-04T02:31:12.661Z,982.03
2016-04-04T02:32:12.663Z,982.03
2016-04-04T02:33:12.666Z,982.01
2016-04-04T02:34:12.669Z,982.04
2016-04-04T02:35:12.671Z,982.06
2016-04-04T02:36:12.690Z,982.07
2016-04-04T02:37:12.693Z,982.01
2016-04-04T02:38:12.679Z,982.1
2016-04-04T02:39:12.698Z,982.1
2016-04-04T02:40:12.685Z,982.1
2016-04-04T02:41:12.687Z,982.19
2016-04-04T02:42:12.706Z,982.27
2016-04-04T02:43:12.709Z,982.39
2016-04-04T02:44:12.712Z,982.51
2016-04-04T02:45:12.714Z,982.56
2016-04-04T02:46:12.717Z,982.57
2016-04-04T02:47:12.720Z,982.54
2016-04-04T02:48:12.722Z,982.52
2016-04-04T02:49:12.741Z,982.46
2016-04-04T02:50:12.743Z,982.44
2016-04-04T02:51:12.730Z,982.48
2016-04-04T02:52:12.749Z,982.49
2016-04-04T02:53:12.751Z,982.51
2016-04-04T02:54:12.754Z,982.49
2016-04-04T02:55:12.757Z,982.51
2016-04-04T02:56:12.759Z,982.51
2016-04-04T02:57:12.763Z,982.52
2016-04-04T02:58:12.765Z,982.55
2016-04-04T02:59:12.768Z,982.56
2016-04-04T03:00:12.770Z,982.56
2016-04-04T03:01:12.789Z,982.63
2016-04-04T03:02:12.776Z,982.61
2016-04-04T03:03:12.793Z,982.56
2016-04-04T03:04:12.797Z,982.6
2016-04-04T03:05:12.799Z,982.57
2016-04-04T03:06:12.802Z,982.56
2016-04-04T03:07:12.804Z,982.62
2016-04-04T03:08:12.800Z,982.6
2016-04-04T03:09:12.819Z,982.53
2016-04-04T03:10:12.821Z,982.54
2016-04-04T03:11:12.824Z,982.5
2016-04-04T03:12:12.827Z,982.51
2016-04-04T03:13:12.845Z,982.51
2016-04-04T03:14:12.848Z,982.54
2016-04-04T03:15:12.851Z,982.44
2016-04-04T03:16:12.837Z,982.48
2016-04-04T03:17:12.856Z,982.51
2016-04-04T03:18:12.843Z,982.49
2016-04-04T03:19:12.862Z,982.46
2016-04-04T03:20:12.864Z,982.47
2016-04-04T03:21:12.867Z,982.47
2016-04-04T03:22:12.854Z,982.45
2016-04-04T03:23:12.872Z,982.45
2016-04-04T03:24:12.875Z,982.46
2016-04-04T03:25:12.878Z,982.44
2016-04-04T03:26:12.880Z,982.4
2016-04-04T03:27:12.883Z,982.36
2016-04-04T03:28:12.886Z,982.36
2016-04-04T03:29:12.888Z,982.34
2016-04-04T03:30:12.891Z,982.32
2016-04-04T03:31:12.894Z,982.32
2016-04-04T03:32:12.911Z,982.35
2016-04-04T03:33:12.930Z,982.27
2016-04-04T03:34:12.917Z,982.31
2016-04-04T03:35:12.920Z,982.29
2016-04-04T03:36:12.922Z,982.22
2016-04-04T03:37:12.925Z,982.27
2016-04-04T03:38:12.928Z,982.25
2016-04-04T03:39:12.947Z,982.24
2016-04-04T03:40:12.933Z,982.21
2016-04-04T03:41:12.935Z,982.23
2016-04-04T03:42:12.939Z,982.22
2016-04-04T03:43:12.941Z,982.25
2016-04-04T03:44:12.943Z,982.24
2016-04-04T03:45:12.947Z,982.23
2016-04-04T03:46:12.950Z,982.24
2016-04-04T03:47:12.968Z,982.25
2016-04-04T03:48:12.970Z,982.28
2016-04-04T03:49:12.974Z,982.3
2016-04-04T03:50:12.976Z,982.3
2016-04-04T03:51:12.978Z,982.34
2016-04-04T03:52:12.981Z,982.33
2016-04-04T03:53:12.984Z,982.34
2016-04-04T03:54:12.987Z,982.35
2016-04-04T03:55:12.989Z,982.37
2016-04-04T03:56:12.992Z,982.38
2016-04-04T03:57:12.995Z,982.37
2016-04-04T03:58:13.029Z,982.34
2016-04-04T03:59:13.016Z,982.33
2016-04-04T04:00:13.019Z,982.36
2016-04-04T04:01:13.022Z,982.3
2016-04-04T04:02:13.024Z,982.33
2016-04-04T04:03:13.027Z,982.33
2016-04-04T04:04:13.030Z,982.33
2016-04-04T04:05:13.032Z,982.29
2016-04-04T04:06:13.020Z,982.32
2016-04-04T04:07:13.039Z,982.3
2016-04-04T04:08:13.041Z,982.28
2016-04-04T04:09:13.044Z,982.28
2016-04-04T04:10:13.047Z,982.34
2016-04-04T04:11:13.049Z,982.33
2016-04-04T04:12:13.052Z,982.4
2016-04-04T04:13:13.055Z,982.43
2016-04-04T04:14:13.058Z,982.44
2016-04-04T04:15:13.060Z,982.45
2016-04-04T04:16:13.063Z,982.46
2016-04-04T04:17:13.066Z,982.47
2016-04-04T04:18:13.083Z,982.49
2016-04-04T04:19:13.086Z,982.45
2016-04-04T04:20:13.088Z,982.5
2016-04-04T04:21:13.092Z,982.51
2016-04-04T04:22:13.094Z,982.52
2016-04-04T04:23:13.096Z,982.53
2016-04-04T04:24:13.100Z,982.53
2016-04-04T04:25:13.102Z,982.56
2016-04-04T04:26:13.105Z,982.53
2016-04-04T04:27:13.107Z,982.55
2016-04-04T04:28:13.127Z,982.53
2016-04-04T04:29:13.129Z,982.53
2016-04-04T04:30:13.131Z,982.52
2016-04-04T04:31:13.134Z,982.54
2016-04-04T04:32:13.120Z,982.55
2016-04-04T04:33:13.140Z,982.56
2016-04-04T04:34:13.142Z,982.54
2016-04-04T04:35:13.145Z,982.53
2016-04-04T04:36:13.148Z,982.56
2016-04-04T04:37:13.150Z,982.55
2016-04-04T04:38:13.168Z,982.59
2016-04-04T04:39:13.202Z,982.57
2016-04-04T04:40:13.221Z,982.57
2016-04-04T04:41:13.176Z,982.58
2016-04-04T04:42:13.179Z,982.58
2016-04-04T04:43:13.166Z,982.53
2016-04-04T04:44:13.184Z,982.57
2016-04-04T04:45:13.187Z,982.53
2016-04-04T04:46:13.189Z,982.51
2016-04-04T04:47:13.192Z,982.5
2016-04-04T04:48:13.195Z,982.48
2016-04-04T04:49:13.198Z,982.48
2016-04-04T04:50:13.200Z,982.46
2016-04-04T04:51:13.203Z,982.49
2016-04-04T04:52:13.222Z,982.49
2016-04-04T04:53:13.208Z,982.53
2016-04-04T04:54:13.227Z,982.53
2016-04-04T04:55:13.229Z,982.54
2016-04-04T04:56:13.232Z,982.53
2016-04-04T04:57:13.251Z,982.52
2016-04-04T04:58:13.254Z,982.52
2016-04-04T04:59:13.240Z,982.52
2016-04-04T05:00:13.243Z,982.47
2016-04-04T05:01:13.262Z,982.49
2016-04-04T05:02:13.248Z,982.49
2016-04-04T05:03:13.268Z,982.49
2016-04-04T05:04:13.254Z,982.54
2016-04-04T05:05:13.257Z,982.58
2016-04-04T05:06:13.275Z,982.57
2016-04-04T05:07:13.278Z,982.56
2016-04-04T05:08:13.281Z,982.6
2016-04-04T05:09:13.283Z,982.61
2016-04-04T05:10:13.286Z,982.62
2016-04-04T05:11:13.288Z,982.63
2016-04-04T05:12:13.292Z,982.58
2016-04-04T05:13:13.294Z,982.52
2016-04-04T05:14:13.311Z,982.57
2016-04-04T05:15:13.315Z,982.6
2016-04-04T05:16:13.318Z,982.59
2016-04-04T05:17:13.320Z,982.62
2016-04-04T05:18:13.322Z,982.64
2016-04-04T05:19:13.326Z,982.64
2016-04-04T05:20:13.328Z,982.65
2016-04-04T05:21:13.330Z,982.66
2016-04-04T05:22:13.333Z,982.72
2016-04-04T05:23:13.336Z,982.65
2016-04-04T05:24:13.348Z,982.65
2016-04-04T05:25:13.341Z,982.66
2016-04-04T05:26:26.084Z,982.68
2016-04-04T05:27:13.926Z,982.72
2016-04-04T05:28:13.365Z,982.72
2016-04-04T05:29:13.368Z,982.75
2016-04-04T05:30:13.371Z,982.8
2016-04-04T05:31:13.374Z,982.79
2016-04-04T05:32:13.376Z,982.81
2016-04-04T05:33:13.395Z,982.87
2016-04-04T05:34:13.381Z,982.88
2016-04-04T05:35:13.384Z,982.88
2016-04-04T05:36:13.387Z,982.89
2016-04-04T05:37:13.406Z,982.93
2016-04-04T05:38:13.409Z,982.88
2016-04-04T05:39:13.395Z,982.91
2016-04-04T05:40:13.414Z,982.9
2016-04-04T05:41:13.400Z,982.92
2016-04-04T05:42:13.419Z,982.96
2016-04-04T05:43:13.422Z,982.98
2016-04-04T05:44:13.424Z,982.98
2016-04-04T05:45:13.443Z,983
2016-04-04T05:46:13.430Z,982.96
2016-04-04T05:47:13.433Z,982.99
2016-04-04T05:48:13.436Z,983.03
2016-04-04T05:49:13.438Z,983.02
2016-04-04T05:50:13.441Z,983.01
2016-04-04T05:51:13.443Z,983.06
2016-04-04T05:52:13.461Z,983.07
2016-04-04T05:53:13.479Z,983.08
2016-04-04T05:54:13.467Z,983.11
2016-04-04T05:55:13.469Z,983.09
2016-04-04T05:56:13.471Z,983.1
2016-04-04T05:57:13.475Z,983.06
2016-04-04T05:58:13.478Z,983.1
2016-04-04T05:59:13.480Z,983.08
2016-04-04T06:00:13.482Z,983.06
2016-04-04T06:01:13.485Z,983.03
2016-04-04T06:02:13.488Z,983.05
2016-04-04T06:03:13.490Z,983.07
2016-04-04T06:04:13.509Z,983.08
2016-04-04T06:05:13.512Z,983.09
2016-04-04T06:06:13.515Z,983.06
2016-04-04T06:07:13.517Z,983.03
2016-04-04T06:08:13.520Z,982.99
2016-04-04T06:09:13.523Z,983.05
2016-04-04T06:10:13.525Z,983.01
2016-04-04T06:11:13.528Z,983.01
2016-04-04T06:12:13.531Z,983.04
2016-04-04T06:13:13.533Z,983.06
2016-04-04T06:14:13.536Z,983.09
2016-04-04T06:15:13.554Z,983.07
2016-04-04T06:16:13.556Z,983.06
2016-04-04T06:17:13.559Z,983.13
2016-04-04T06:18:13.562Z,983.13
2016-04-04T06:19:13.565Z,983.18
2016-04-04T06:20:13.567Z,983.18
2016-04-04T06:21:13.570Z,983.2
2016-04-04T06:22:13.573Z,983.18
2016-04-04T06:23:13.591Z,983.2
2016-04-04T06:24:13.594Z,983.23
2016-04-04T06:25:13.580Z,983.2
2016-04-04T06:26:13.599Z,983.15
2016-04-04T06:27:13.602Z,983.15
2016-04-04T06:28:13.604Z,983.2
2016-04-04T06:29:13.608Z,983.2
2016-04-04T06:30:13.610Z,983.22
2016-04-04T06:31:13.629Z,983.2
2016-04-04T06:32:13.631Z,983.19
2016-04-04T06:33:13.635Z,983.26
2016-04-04T06:34:13.637Z,983.26
2016-04-04T06:35:13.639Z,983.23
2016-04-04T06:36:13.643Z,983.23
2016-04-04T06:37:13.645Z,983.18
2016-04-04T06:38:13.663Z,983.16
2016-04-04T06:39:13.665Z,983.13
2016-04-04T06:40:13.668Z,983.1
2016-04-04T06:41:13.687Z,983.08
2016-04-04T06:42:13.689Z,983.04
2016-04-04T06:43:13.676Z,983.07
2016-04-04T06:44:13.695Z,983.12
2016-04-04T06:45:13.698Z,983.08
2016-04-04T06:46:13.716Z,983.18
2016-04-04T06:47:13.703Z,983.21
2016-04-04T06:48:13.722Z,983.2
2016-04-04T06:49:13.724Z,983.22
2016-04-04T06:50:13.727Z,983.24
2016-04-04T06:51:13.729Z,983.27
2016-04-04T06:52:13.747Z,983.2
2016-04-04T06:53:13.750Z,983.19
2016-04-04T06:54:13.753Z,983.15
2016-04-04T06:55:13.755Z,983.14
2016-04-04T06:56:13.758Z,983.13
2016-04-04T06:57:13.777Z,983.12
2016-04-04T06:58:13.779Z,983.14
2016-04-04T06:59:13.782Z,983.13
2016-04-04T07:00:13.816Z,983.12
2016-04-04T07:01:13.793Z,983.12
2016-04-04T07:02:13.795Z,983.12
2016-04-04T07:03:13.813Z,983.11
2016-04-04T07:04:13.815Z,983.13
2016-04-04T07:05:13.819Z,983.13
2016-04-04T07:06:13.837Z,983.15
2016-04-04T07:07:13.840Z,983.21
2016-04-04T07:08:13.842Z,983.21
2016-04-04T07:09:13.861Z,983.22
2016-04-04T07:10:13.863Z,983.25
2016-04-04T07:11:13.866Z,983.24
2016-04-04T07:12:13.869Z,983.26
2016-04-04T07:13:13.871Z,983.28
2016-04-04T07:14:13.890Z,983.22
2016-04-04T07:15:13.892Z,983.25
2016-04-04T07:16:13.894Z,983.29
2016-04-04T07:17:13.913Z,983.31
2016-04-04T07:18:13.931Z,983.29
2016-04-04T07:19:13.919Z,983.32
2016-04-04T07:20:13.921Z,983.29
2016-04-04T07:21:13.940Z,983.35
2016-04-04T07:22:13.942Z,983.34
2016-04-04T07:23:13.945Z,983.32
2016-04-04T07:24:13.947Z,983.28
2016-04-04T07:25:13.966Z,983.31
2016-04-04T07:26:13.985Z,983.28
2016-04-04T07:27:13.972Z,983.29
2016-04-04T07:28:13.974Z,983.24
2016-04-04T07:29:13.992Z,983.25
2016-04-04T07:30:13.996Z,983.23
2016-04-04T07:31:14.030Z,983.23
2016-04-04T07:32:14.016Z,983.23
2016-04-04T07:33:14.034Z,983.19
2016-04-04T07:34:14.038Z,983.18
2016-04-04T07:35:14.055Z,983.17
2016-04-04T07:36:14.074Z,983.17
2016-04-04T07:37:14.076Z,983.2
2016-04-04T07:38:14.079Z,983.22
2016-04-04T07:39:14.082Z,983.29
2016-04-04T07:40:14.101Z,983.29
2016-04-04T07:41:14.118Z,983.34
2016-04-04T07:42:14.120Z,983.39
2016-04-04T07:43:14.124Z,983.43
2016-04-04T07:44:14.143Z,983.44
2016-04-04T07:45:14.161Z,983.37
2016-04-04T07:46:14.163Z,983.36
2016-04-04T07:47:14.166Z,983.34
2016-04-04T07:48:14.184Z,983.32
2016-04-04T07:49:14.187Z,983.3
2016-04-04T07:50:14.189Z,983.29
2016-04-04T07:51:14.208Z,983.3
2016-04-04T07:52:14.210Z,983.32
2016-04-04T07:53:14.230Z,983.34
2016-04-04T07:54:14.232Z,983.35
2016-04-04T07:55:14.249Z,983.36
2016-04-04T07:56:14.269Z,983.43
2016-04-04T07:57:14.271Z,983.51
2016-04-04T07:58:14.274Z,983.48
2016-04-04T07:59:14.276Z,983.53
2016-04-04T08:00:14.294Z,983.57
2016-04-04T08:01:14.312Z,983.58
2016-04-04T08:02:14.316Z,983.57
2016-04-04T08:03:14.334Z,983.57
2016-04-04T08:04:14.321Z,983.52
2016-04-04T08:05:14.324Z,983.53
2016-04-04T08:06:14.343Z,983.53
2016-04-04T08:07:14.345Z,983.51
2016-04-04T08:08:14.347Z,983.57
2016-04-04T08:09:14.365Z,983.53
2016-04-04T08:10:14.368Z,983.62
2016-04-04T08:11:14.403Z,983.72
2016-04-04T08:12:14.389Z,983.8
2016-04-04T08:13:14.392Z,983.87
2016-04-04T08:14:14.394Z,983.9
2016-04-04T08:15:14.413Z,983.93
2016-04-04T08:16:14.431Z,983.96
2016-04-04T08:17:14.434Z,983.95
2016-04-04T08:18:14.437Z,983.94
2016-04-04T08:19:14.439Z,983.99
2016-04-04T08:20:14.458Z,983.96
2016-04-04T08:21:14.492Z,983.95
2016-04-04T08:22:14.478Z,983.96
2016-04-04T08:23:14.481Z,983.99
2016-04-04T08:24:14.500Z,983.98
2016-04-04T08:25:14.503Z,984.02
2016-04-04T08:26:14.521Z,984.01
2016-04-04T08:27:14.508Z,984.02
2016-04-04T08:28:14.526Z,984.02
2016-04-04T08:29:14.530Z,984.04
2016-04-04T08:30:14.532Z,983.99
2016-04-04T08:31:14.566Z,983.99
2016-04-04T08:32:14.568Z,984.03
2016-04-04T08:33:14.561Z,984.01
2016-04-04T08:34:14.552Z,984
2016-04-04T08:35:14.543Z,984.06
2016-04-04T08:36:14.550Z,984.09
2016-04-04T08:37:14.524Z,984.13
2016-04-04T08:38:14.538Z,984.12
2016-04-04T08:39:14.551Z,984.18
2016-04-04T08:40:14.534Z,984.16
2016-04-04T08:41:14.564Z,984.11
2016-04-04T08:42:14.531Z,984.12
2016-04-04T08:43:14.547Z,984.12
2016-04-04T08:44:14.564Z,984.15
2016-04-04T08:45:14.550Z,984.13
2016-04-04T08:46:14.567Z,984.11
2016-04-04T08:47:14.582Z,984.07
2016-04-04T08:48:14.570Z,984.11
2016-04-04T08:49:14.571Z,984.12
2016-04-04T08:50:14.573Z,984.12
2016-04-04T08:51:14.590Z,984.13
2016-04-04T08:52:14.592Z,984.2
2016-04-04T08:53:14.594Z,984.18
2016-04-04T08:54:14.597Z,984.15
2016-04-04T08:55:14.599Z,984.13
2016-04-04T08:56:14.617Z,984.1
2016-04-04T08:57:14.619Z,984.13
2016-04-04T08:58:14.622Z,984.07
2016-04-04T08:59:14.625Z,984.13
2016-04-04T09:00:14.628Z,984.14
2016-04-04T09:01:14.661Z,984.14
2016-04-04T09:02:14.648Z,984.09
2016-04-04T09:03:14.667Z,984.09
2016-04-04T09:04:14.654Z,984.13
2016-04-04T09:05:14.672Z,984.05
2016-04-04T09:06:14.877Z,984.11
2016-04-04T09:07:14.677Z,984.09
2016-04-04T09:08:14.680Z,984.07
2016-04-04T09:09:14.683Z,984.1
2016-04-04T09:10:14.701Z,984.07
2016-04-04T09:11:14.720Z,984.07
2016-04-04T09:12:14.737Z,984.07
2016-04-04T09:13:14.725Z,984.07
2016-04-04T09:14:14.728Z,984.03
2016-04-04T09:15:14.731Z,983.99
2016-04-04T09:16:14.764Z,983.95
2016-04-04T09:17:14.751Z,983.98
2016-04-04T09:18:14.754Z,983.91
2016-04-04T09:19:14.772Z,983.83
2016-04-04T09:20:14.775Z,983.84
2016-04-04T09:21:14.778Z,983.77
2016-04-04T09:22:14.780Z,983.76
2016-04-04T09:23:14.798Z,983.75
2016-04-04T09:24:14.801Z,983.8
2016-04-04T09:25:14.804Z,983.84
2016-04-04T09:26:14.822Z,983.85
2016-04-04T09:27:14.825Z,983.92
2016-04-04T09:28:14.828Z,983.99
2016-04-04T09:29:14.830Z,984.08
2016-04-04T09:30:14.833Z,984.16
2016-04-04T09:31:14.852Z,984.11
2016-04-04T09:32:14.854Z,984.08
2016-04-04T09:33:14.857Z,984.11
2016-04-04T09:34:14.860Z,984.08
2016-04-04T09:35:14.862Z,984.17
2016-04-04T09:36:14.880Z,984.16
2016-04-04T09:37:14.899Z,984.16
2016-04-04T09:38:14.902Z,984.06
2016-04-04T09:39:14.904Z,984.07
2016-04-04T09:40:14.907Z,984.02
2016-04-04T09:41:14.909Z,983.98
2016-04-04T09:42:14.912Z,983.96
2016-04-04T09:43:14.915Z,984.03
2016-04-04T09:44:14.934Z,984.03
2016-04-04T09:45:14.937Z,984.01
2016-04-04T09:46:14.954Z,984.07
2016-04-04T09:47:14.941Z,984.14
2016-04-04T09:48:14.960Z,984.14
2016-04-04T09:49:14.963Z,984.16
2016-04-04T09:50:14.965Z,984.21
2016-04-04T09:51:14.983Z,984.22
2016-04-04T09:52:14.986Z,984.16
2016-04-04T09:53:14.972Z,984.19
2016-04-04T09:54:14.991Z,984.14
2016-04-04T09:55:15.010Z,984.24
2016-04-04T09:56:14.997Z,984.21
2016-04-04T09:57:15.000Z,984.25
2016-04-04T09:58:15.017Z,984.24
2016-04-04T09:59:15.020Z,984.31
2016-04-04T10:00:15.008Z,984.3
2016-04-04T10:01:15.026Z,984.28
2016-04-04T10:02:15.014Z,984.3
2016-04-04T10:03:15.031Z,984.28
2016-04-04T10:04:15.033Z,984.26
2016-04-04T10:05:15.036Z,984.27
2016-04-04T10:06:15.039Z,984.32
2016-04-04T10:07:15.042Z,984.23
2016-04-04T10:08:15.044Z,984.28
2016-04-04T10:09:15.063Z,984.25
2016-04-04T10:10:15.054Z,984.27
2016-04-04T10:11:15.074Z,984.3
2016-04-04T10:12:15.060Z,984.25
2016-04-04T10:13:15.063Z,984.29
2016-04-04T10:14:15.081Z,984.33
2016-04-04T10:15:15.084Z,984.32
2016-04-04T10:16:15.087Z,984.31
2016-04-04T10:17:15.090Z,984.29
2016-04-04T10:18:15.076Z,984.34
2016-04-04T10:19:15.095Z,984.32
2016-04-04T10:20:15.128Z,984.35
2016-04-04T10:21:15.116Z,984.37
2016-04-04T10:22:15.103Z,984.36
2016-04-04T10:23:15.122Z,984.35
2016-04-04T10:24:15.108Z,984.32
2016-04-04T10:25:15.127Z,984.37
2016-04-04T10:26:15.130Z,984.42
2016-04-04T10:27:15.117Z,984.36
2016-04-04T10:28:15.135Z,984.43
2016-04-04T10:29:15.122Z,984.46
2016-04-04T10:30:15.124Z,984.41
2016-04-04T10:31:15.143Z,984.35
2016-04-04T10:32:15.145Z,984.39
2016-04-04T10:33:15.149Z,984.39
2016-04-04T10:34:15.152Z,984.36
2016-04-04T10:35:15.154Z,984.33
2016-04-04T10:36:15.187Z,984.31
2016-04-04T10:37:15.190Z,984.36
2016-04-04T10:38:15.176Z,984.36
2016-04-04T10:39:15.179Z,984.34
2016-04-04T10:40:15.199Z,984.3
2016-04-04T10:41:15.185Z,984.26
2016-04-04T10:42:15.204Z,984.28
2016-04-04T10:43:15.206Z,984.27
2016-04-04T10:44:15.209Z,984.2
2016-04-04T10:45:15.212Z,984.23
2016-04-04T10:46:15.215Z,984.24
2016-04-04T10:47:15.217Z,984.25
2016-04-04T10:48:15.220Z,984.16
2016-04-04T10:49:15.237Z,984.14
2016-04-04T10:50:15.240Z,984.1
2016-04-04T10:51:15.243Z,984.08
2016-04-04T10:52:15.246Z,984.1
2016-04-04T10:53:15.248Z,984.09
2016-04-04T10:54:15.251Z,984.14
2016-04-04T10:55:15.253Z,984.17
2016-04-04T10:56:15.272Z,984.15
2016-04-04T10:57:15.275Z,984.12
2016-04-04T10:58:15.278Z,984.1
2016-04-04T10:59:15.296Z,984.08
2016-04-04T11:00:15.299Z,984.1
2016-04-04T11:01:15.317Z,984.08
2016-04-04T11:02:15.305Z,984.07
2016-04-04T11:03:15.307Z,984.07
2016-04-04T11:04:15.325Z,984.1
2016-04-04T11:05:15.312Z,984.05
2016-04-04T11:06:15.331Z,984.07
2016-04-04T11:07:15.333Z,984.04
2016-04-04T11:08:15.336Z,984.01
2016-04-04T11:09:15.348Z,984.01
2016-04-04T11:10:15.367Z,984.06
2016-04-04T11:11:15.353Z,984.08
2016-04-04T11:12:15.356Z,984.07
2016-04-04T11:13:15.359Z,984.03
2016-04-04T11:14:15.378Z,984.05
2016-04-04T11:15:15.364Z,984.09
2016-04-04T11:16:15.398Z,984.13
2016-04-04T11:17:15.401Z,984.06
2016-04-04T11:18:15.389Z,984.03
2016-04-04T11:19:15.391Z,984.08
2016-04-04T11:20:15.394Z,984.14
2016-04-04T11:21:15.428Z,984.15
2016-04-04T11:22:15.415Z,984.05
2016-04-04T11:23:15.433Z,983.99
2016-04-04T11:24:15.420Z,983.92
2016-04-04T11:25:15.423Z,983.9
2016-04-04T11:26:15.441Z,983.85
2016-04-04T11:27:15.444Z,983.82
2016-04-04T11:28:15.447Z,983.85
2016-04-04T11:29:15.465Z,983.83
2016-04-04T11:30:15.452Z,983.76
2016-04-04T11:31:15.470Z,983.74
2016-04-04T11:32:15.473Z,983.78
2016-04-04T11:33:15.475Z,983.69
2016-04-04T11:34:15.493Z,983.72
2016-04-04T11:35:15.481Z,983.7
2016-04-04T11:36:15.483Z,983.76
2016-04-04T11:37:15.486Z,983.69
2016-04-04T11:38:15.494Z,983.65
2016-04-04T11:39:15.512Z,983.66
2016-04-04T11:40:15.515Z,983.62
2016-04-04T11:41:15.533Z,983.62
2016-04-04T11:42:15.520Z,983.65
2016-04-04T11:43:15.539Z,983.72
2016-04-04T11:44:15.541Z,983.73
2016-04-04T11:45:15.544Z,983.64
2016-04-04T11:46:15.546Z,983.62
2016-04-04T11:47:15.564Z,983.64
2016-04-04T11:48:15.552Z,983.61
2016-04-04T11:49:15.554Z,983.6
2016-04-04T11:50:15.572Z,983.62
2016-04-04T11:51:15.575Z,983.61
2016-04-04T11:52:15.578Z,983.65
2016-04-04T11:53:15.580Z,983.62
2016-04-04T11:54:15.600Z,983.66
2016-04-04T11:55:15.602Z,983.71
2016-04-04T11:56:15.605Z,983.64
2016-04-04T11:57:15.608Z,983.65
2016-04-04T11:58:15.610Z,983.65
2016-04-04T11:59:15.613Z,983.67
2016-04-04T12:00:15.631Z,983.69
2016-04-04T12:01:15.634Z,983.7
2016-04-04T12:02:15.637Z,983.64
2016-04-04T12:03:15.639Z,983.57
2016-04-04T12:04:15.657Z,983.43
2016-04-04T12:05:15.659Z,983.51
2016-04-04T12:06:15.662Z,983.57
2016-04-04T12:07:15.665Z,983.58
2016-04-04T12:08:15.667Z,983.63
2016-04-04T12:09:15.671Z,983.68
2016-04-04T12:10:15.673Z,983.66
2016-04-04T12:11:15.692Z,983.66
2016-04-04T12:12:15.695Z,983.65
2016-04-04T12:13:15.698Z,983.69
2016-04-04T12:14:15.715Z,983.67
2016-04-04T12:15:15.703Z,983.62
2016-04-04T12:16:15.720Z,983.64
2016-04-04T12:17:15.723Z,983.71
2016-04-04T12:18:15.726Z,983.65
2016-04-04T12:19:15.728Z,983.65
2016-04-04T12:20:15.732Z,983.72
2016-04-04T12:21:15.734Z,983.69
2016-04-04T12:22:15.737Z,983.66
2016-04-04T12:23:15.756Z,983.63
2016-04-04T12:24:15.774Z,983.65
2016-04-04T12:25:15.761Z,983.65
2016-04-04T12:26:15.764Z,983.65
2016-04-04T12:27:15.766Z,983.62
2016-04-04T12:28:15.769Z,983.66
2016-04-04T12:29:15.771Z,983.61
2016-04-04T12:30:15.774Z,983.66
2016-04-04T12:31:15.793Z,983.61